sensor_id;sensor_type;location;lat;lon;timestamp;P1;durP1;ratioP1;P2;durP2;ratioP2
32323;SDS011;25666;44.350;9.222;2023-02-19T00:01:15;17.35;;;10.70;;
32323;SDS011;25666;44.350;9.222;2023-02-19T00:03:42;18.25;;;10.10;;
32323;SDS011;25666;44.350;9.222;2023-02-19T00:06:13;21.02;;;10.07;;
32323;SDS011;25666;44.350;9.222;2023-02-19T00:08:38;20.17;;;10.25;;
32323;SDS011;25666;44.350;9.222;2023-02-19T00:11:07;22.00;;;10.63;;
32323;SDS011;25666;44.350;9.222;2023-02-19T00:13:36;15.82;;;8.80;;
32323;SDS011;25666;44.350;9.222;2023-02-19T00:16:05;19.48;;;9.73;;
32323;SDS011;25666;44.350;9.222;2023-02-19T00:18:31;17.42;;;9.15;;
32323;SDS011;25666;44.350;9.222;2023-02-19T00:20:57;16.45;;;8.80;;
32323;SDS011;25666;44.350;9.222;2023-02-19T00:23:22;19.73;;;10.85;;
32323;SDS011;25666;44.350;9.222;2023-02-19T00:25:48;17.85;;;10.02;;
32323;SDS011;25666;44.350;9.222;2023-02-19T00:28:13;15.65;;;8.98;;
32323;SDS011;25666;44.350;9.222;2023-02-19T00:30:39;17.80;;;8.82;;
32323;SDS011;25666;44.350;9.222;2023-02-19T00:33:05;16.40;;;8.93;;
32323;SDS011;25666;44.350;9.222;2023-02-19T00:35:32;16.30;;;9.25;;
32323;SDS011;25666;44.350;9.222;2023-02-19T00:37:58;20.05;;;10.52;;
32323;SDS011;25666;44.350;9.222;2023-02-19T00:40:24;21.27;;;11.82;;
32323;SDS011;25666;44.350;9.222;2023-02-19T00:42:51;19.17;;;9.18;;
32323;SDS011;25666;44.350;9.222;2023-02-19T00:45:17;17.42;;;9.43;;
32323;SDS011;25666;44.350;9.222;2023-02-19T00:47:43;23.23;;;10.85;;
32323;SDS011;25666;44.350;9.222;2023-02-19T00:50:09;21.70;;;9.77;;
32323;SDS011;25666;44.350;9.222;2023-02-19T00:52:34;20.75;;;9.98;;
32323;SDS011;25666;44.350;9.222;2023-02-19T00:55:00;21.75;;;9.88;;
32323;SDS011;25666;44.350;9.222;2023-02-19T00:57:25;16.73;;;10.02;;
32323;SDS011;25666;44.350;9.222;2023-02-19T00:59:51;14.23;;;8.70;;
32323;SDS011;25666;44.350;9.222;2023-02-19T01:02:16;19.70;;;10.50;;
32323;SDS011;25666;44.350;9.222;2023-02-19T01:04:42;20.85;;;9.88;;
32323;SDS011;25666;44.350;9.222;2023-02-19T01:07:08;20.98;;;10.05;;
32323;SDS011;25666;44.350;9.222;2023-02-19T01:09:34;15.52;;;9.20;;
32323;SDS011;25666;44.350;9.222;2023-02-19T01:12:00;16.73;;;9.38;;
32323;SDS011;25666;44.350;9.222;2023-02-19T01:14:25;26.02;;;10.10;;
32323;SDS011;25666;44.350;9.222;2023-02-19T01:16:51;17.27;;;9.65;;
32323;SDS011;25666;44.350;9.222;2023-02-19T01:19:17;18.05;;;10.25;;
32323;SDS011;25666;44.350;9.222;2023-02-19T01:21:42;18.48;;;9.60;;
32323;SDS011;25666;44.350;9.222;2023-02-19T01:24:08;15.50;;;8.85;;
32323;SDS011;25666;44.350;9.222;2023-02-19T01:26:34;15.98;;;8.45;;
32323;SDS011;25666;44.350;9.222;2023-02-19T01:29:02;16.33;;;9.20;;
32323;SDS011;25666;44.350;9.222;2023-02-19T01:31:29;18.48;;;9.18;;
32323;SDS011;25666;44.350;9.222;2023-02-19T01:33:56;12.45;;;7.53;;
32323;SDS011;25666;44.350;9.222;2023-02-19T01:36:23;15.98;;;8.02;;
32323;SDS011;25666;44.350;9.222;2023-02-19T01:38:50;17.33;;;8.73;;
32323;SDS011;25666;44.350;9.222;2023-02-19T01:41:18;16.17;;;8.43;;
32323;SDS011;25666;44.350;9.222;2023-02-19T01:44:03;16.27;;;9.50;;
32323;SDS011;25666;44.350;9.222;2023-02-19T01:46:29;13.77;;;8.20;;
32323;SDS011;25666;44.350;9.222;2023-02-19T01:51:41;19.23;;;9.25;;
32323;SDS011;25666;44.350;9.222;2023-02-19T01:54:10;16.48;;;8.27;;
32323;SDS011;25666;44.350;9.222;2023-02-19T01:56:39;13.70;;;8.27;;
32323;SDS011;25666;44.350;9.222;2023-02-19T01:59:06;11.57;;;7.72;;
32323;SDS011;25666;44.350;9.222;2023-02-19T02:01:33;14.45;;;8.52;;
32323;SDS011;25666;44.350;9.222;2023-02-19T02:04:01;15.35;;;8.52;;
32323;SDS011;25666;44.350;9.222;2023-02-19T02:06:29;14.23;;;7.85;;
32323;SDS011;25666;44.350;9.222;2023-02-19T02:08:58;16.25;;;8.13;;
32323;SDS011;25666;44.350;9.222;2023-02-19T02:11:46;14.90;;;7.47;;
32323;SDS011;25666;44.350;9.222;2023-02-19T02:14:13;17.40;;;9.27;;
32323;SDS011;25666;44.350;9.222;2023-02-19T02:19:40;16.27;;;7.47;;
32323;SDS011;25666;44.350;9.222;2023-02-19T02:22:20;15.63;;;8.05;;
32323;SDS011;25666;44.350;9.222;2023-02-19T02:33:25;16.80;;;7.93;;
32323;SDS011;25666;44.350;9.222;2023-02-19T02:35:59;10.75;;;6.25;;
32323;SDS011;25666;44.350;9.222;2023-02-19T02:38:31;17.80;;;7.85;;
32323;SDS011;25666;44.350;9.222;2023-02-19T02:40:59;12.57;;;7.32;;
32323;SDS011;25666;44.350;9.222;2023-02-19T02:43:26;11.68;;;7.18;;
32323;SDS011;25666;44.350;9.222;2023-02-19T02:45:52;16.05;;;8.23;;
32323;SDS011;25666;44.350;9.222;2023-02-19T02:48:26;12.73;;;7.55;;
32323;SDS011;25666;44.350;9.222;2023-02-19T02:56:17;13.80;;;7.82;;
32323;SDS011;25666;44.350;9.222;2023-02-19T02:58:44;17.67;;;7.95;;
32323;SDS011;25666;44.350;9.222;2023-02-19T03:01:18;15.95;;;7.50;;
32323;SDS011;25666;44.350;9.222;2023-02-19T03:04:11;13.98;;;7.80;;
32323;SDS011;25666;44.350;9.222;2023-02-19T03:06:43;14.95;;;8.38;;
32323;SDS011;25666;44.350;9.222;2023-02-19T03:09:17;21.02;;;10.80;;
32323;SDS011;25666;44.350;9.222;2023-02-19T03:11:48;16.83;;;8.20;;
32323;SDS011;25666;44.350;9.222;2023-02-19T03:14:39;16.73;;;7.20;;
32323;SDS011;25666;44.350;9.222;2023-02-19T03:17:44;17.25;;;8.07;;
32323;SDS011;25666;44.350;9.222;2023-02-19T03:20:36;18.20;;;8.07;;
32323;SDS011;25666;44.350;9.222;2023-02-19T03:23:05;13.48;;;7.80;;
32323;SDS011;25666;44.350;9.222;2023-02-19T03:25:35;14.15;;;7.78;;
32323;SDS011;25666;44.350;9.222;2023-02-19T03:28:31;15.57;;;8.25;;
32323;SDS011;25666;44.350;9.222;2023-02-19T03:31:18;16.55;;;7.82;;
32323;SDS011;25666;44.350;9.222;2023-02-19T03:33:47;17.73;;;9.15;;
32323;SDS011;25666;44.350;9.222;2023-02-19T03:36:18;14.35;;;7.75;;
32323;SDS011;25666;44.350;9.222;2023-02-19T03:38:55;17.23;;;8.45;;
32323;SDS011;25666;44.350;9.222;2023-02-19T03:44:08;14.20;;;8.07;;
32323;SDS011;25666;44.350;9.222;2023-02-19T03:46:43;19.23;;;8.85;;
32323;SDS011;25666;44.350;9.222;2023-02-19T03:49:38;15.40;;;7.57;;
32323;SDS011;25666;44.350;9.222;2023-02-19T03:55:05;18.38;;;8.45;;
32323;SDS011;25666;44.350;9.222;2023-02-19T03:57:48;19.48;;;9.32;;
32323;SDS011;25666;44.350;9.222;2023-02-19T04:05:20;14.38;;;7.93;;
32323;SDS011;25666;44.350;9.222;2023-02-19T04:07:49;12.43;;;7.63;;
32323;SDS011;25666;44.350;9.222;2023-02-19T04:10:22;14.65;;;8.65;;
32323;SDS011;25666;44.350;9.222;2023-02-19T04:13:11;14.95;;;8.23;;
32323;SDS011;25666;44.350;9.222;2023-02-19T04:15:42;16.77;;;9.23;;
32323;SDS011;25666;44.350;9.222;2023-02-19T04:18:15;17.73;;;7.63;;
32323;SDS011;25666;44.350;9.222;2023-02-19T04:20:45;17.33;;;8.93;;
32323;SDS011;25666;44.350;9.222;2023-02-19T04:23:12;13.73;;;8.27;;
32323;SDS011;25666;44.350;9.222;2023-02-19T04:25:41;20.60;;;10.02;;
32323;SDS011;25666;44.350;9.222;2023-02-19T04:28:09;17.27;;;8.50;;
32323;SDS011;25666;44.350;9.222;2023-02-19T04:30:38;18.80;;;9.25;;
32323;SDS011;25666;44.350;9.222;2023-02-19T04:33:03;14.88;;;8.52;;
32323;SDS011;25666;44.350;9.222;2023-02-19T04:35:29;19.63;;;8.57;;
32323;SDS011;25666;44.350;9.222;2023-02-19T04:37:54;16.58;;;9.32;;
32323;SDS011;25666;44.350;9.222;2023-02-19T04:40:20;18.83;;;9.35;;
32323;SDS011;25666;44.350;9.222;2023-02-19T04:42:45;15.10;;;8.05;;
32323;SDS011;25666;44.350;9.222;2023-02-19T04:45:10;17.65;;;7.55;;
32323;SDS011;25666;44.350;9.222;2023-02-19T04:47:36;17.35;;;8.32;;
32323;SDS011;25666;44.350;9.222;2023-02-19T04:50:02;16.02;;;9.15;;
32323;SDS011;25666;44.350;9.222;2023-02-19T04:52:27;23.92;;;9.80;;
32323;SDS011;25666;44.350;9.222;2023-02-19T04:54:53;14.73;;;8.15;;
32323;SDS011;25666;44.350;9.222;2023-02-19T04:57:18;12.63;;;7.05;;
32323;SDS011;25666;44.350;9.222;2023-02-19T04:59:44;12.63;;;7.00;;
32323;SDS011;25666;44.350;9.222;2023-02-19T05:02:10;14.10;;;7.72;;
32323;SDS011;25666;44.350;9.222;2023-02-19T05:04:36;14.00;;;7.95;;
32323;SDS011;25666;44.350;9.222;2023-02-19T05:07:01;15.82;;;8.55;;
32323;SDS011;25666;44.350;9.222;2023-02-19T05:09:27;20.73;;;8.40;;
32323;SDS011;25666;44.350;9.222;2023-02-19T05:11:52;15.40;;;8.10;;
32323;SDS011;25666;44.350;9.222;2023-02-19T05:14:18;16.80;;;8.00;;
32323;SDS011;25666;44.350;9.222;2023-02-19T05:16:43;15.07;;;8.35;;
32323;SDS011;25666;44.350;9.222;2023-02-19T05:19:12;14.57;;;8.25;;
32323;SDS011;25666;44.350;9.222;2023-02-19T05:21:37;19.70;;;10.05;;
32323;SDS011;25666;44.350;9.222;2023-02-19T05:24:04;13.30;;;9.20;;
32323;SDS011;25666;44.350;9.222;2023-02-19T05:26:33;15.10;;;8.43;;
32323;SDS011;25666;44.350;9.222;2023-02-19T05:28:59;21.38;;;11.05;;
32323;SDS011;25666;44.350;9.222;2023-02-19T05:31:25;14.98;;;8.75;;
32323;SDS011;25666;44.350;9.222;2023-02-19T05:33:50;15.77;;;9.23;;
32323;SDS011;25666;44.350;9.222;2023-02-19T05:36:18;18.50;;;10.23;;
32323;SDS011;25666;44.350;9.222;2023-02-19T05:38:45;17.80;;;9.65;;
32323;SDS011;25666;44.350;9.222;2023-02-19T05:41:12;13.57;;;8.63;;
32323;SDS011;25666;44.350;9.222;2023-02-19T05:43:41;15.38;;;8.75;;
32323;SDS011;25666;44.350;9.222;2023-02-19T05:46:08;13.98;;;8.63;;
32323;SDS011;25666;44.350;9.222;2023-02-19T05:48:34;14.93;;;8.73;;
32323;SDS011;25666;44.350;9.222;2023-02-19T05:51:01;20.17;;;9.25;;
32323;SDS011;25666;44.350;9.222;2023-02-19T05:53:27;17.95;;;9.63;;
32323;SDS011;25666;44.350;9.222;2023-02-19T05:55:53;14.68;;;7.22;;
32323;SDS011;25666;44.350;9.222;2023-02-19T05:58:18;15.90;;;8.98;;
32323;SDS011;25666;44.350;9.222;2023-02-19T06:00:44;21.40;;;10.05;;
32323;SDS011;25666;44.350;9.222;2023-02-19T06:03:09;18.80;;;9.95;;
32323;SDS011;25666;44.350;9.222;2023-02-19T06:05:35;17.45;;;8.90;;
32323;SDS011;25666;44.350;9.222;2023-02-19T06:08:01;18.33;;;9.80;;
32323;SDS011;25666;44.350;9.222;2023-02-19T06:10:27;17.17;;;10.73;;
32323;SDS011;25666;44.350;9.222;2023-02-19T06:12:53;21.20;;;9.98;;
32323;SDS011;25666;44.350;9.222;2023-02-19T06:15:19;15.68;;;8.73;;
32323;SDS011;25666;44.350;9.222;2023-02-19T06:17:45;19.13;;;10.95;;
32323;SDS011;25666;44.350;9.222;2023-02-19T06:20:11;18.67;;;10.45;;
32323;SDS011;25666;44.350;9.222;2023-02-19T06:22:37;18.42;;;10.35;;
32323;SDS011;25666;44.350;9.222;2023-02-19T06:25:02;16.50;;;9.45;;
32323;SDS011;25666;44.350;9.222;2023-02-19T06:27:28;19.45;;;10.90;;
32323;SDS011;25666;44.350;9.222;2023-02-19T06:29:53;15.25;;;9.60;;
32323;SDS011;25666;44.350;9.222;2023-02-19T06:32:19;21.42;;;10.93;;
32323;SDS011;25666;44.350;9.222;2023-02-19T06:34:44;14.18;;;7.97;;
32323;SDS011;25666;44.350;9.222;2023-02-19T06:37:10;19.63;;;9.20;;
32323;SDS011;25666;44.350;9.222;2023-02-19T06:39:35;18.15;;;10.00;;
32323;SDS011;25666;44.350;9.222;2023-02-19T06:42:02;17.42;;;9.50;;
32323;SDS011;25666;44.350;9.222;2023-02-19T06:44:28;16.83;;;9.20;;
32323;SDS011;25666;44.350;9.222;2023-02-19T06:46:53;17.65;;;8.85;;
32323;SDS011;25666;44.350;9.222;2023-02-19T06:49:21;17.40;;;8.93;;
32323;SDS011;25666;44.350;9.222;2023-02-19T06:51:49;15.75;;;9.88;;
32323;SDS011;25666;44.350;9.222;2023-02-19T06:54:15;18.80;;;10.38;;
32323;SDS011;25666;44.350;9.222;2023-02-19T06:56:41;17.08;;;9.90;;
32323;SDS011;25666;44.350;9.222;2023-02-19T06:59:09;16.98;;;8.98;;
32323;SDS011;25666;44.350;9.222;2023-02-19T07:01:36;21.27;;;8.80;;
32323;SDS011;25666;44.350;9.222;2023-02-19T07:04:03;17.58;;;8.88;;
32323;SDS011;25666;44.350;9.222;2023-02-19T07:06:29;20.05;;;9.20;;
32323;SDS011;25666;44.350;9.222;2023-02-19T07:08:56;20.42;;;11.50;;
32323;SDS011;25666;44.350;9.222;2023-02-19T07:11:22;18.10;;;9.95;;
32323;SDS011;25666;44.350;9.222;2023-02-19T07:13:55;20.42;;;10.27;;
32323;SDS011;25666;44.350;9.222;2023-02-19T07:16:22;18.38;;;8.52;;
32323;SDS011;25666;44.350;9.222;2023-02-19T07:18:48;18.45;;;9.93;;
32323;SDS011;25666;44.350;9.222;2023-02-19T07:21:14;17.13;;;9.48;;
32323;SDS011;25666;44.350;9.222;2023-02-19T07:23:41;20.63;;;10.00;;
32323;SDS011;25666;44.350;9.222;2023-02-19T07:26:12;26.00;;;11.05;;
32323;SDS011;25666;44.350;9.222;2023-02-19T07:31:05;14.75;;;8.35;;
32323;SDS011;25666;44.350;9.222;2023-02-19T07:33:31;16.02;;;8.93;;
32323;SDS011;25666;44.350;9.222;2023-02-19T07:35:56;18.60;;;9.88;;
32323;SDS011;25666;44.350;9.222;2023-02-19T07:38:22;20.77;;;9.90;;
32323;SDS011;25666;44.350;9.222;2023-02-19T07:40:49;24.00;;;11.27;;
32323;SDS011;25666;44.350;9.222;2023-02-19T07:43:16;20.42;;;10.02;;
32323;SDS011;25666;44.350;9.222;2023-02-19T07:45:41;21.95;;;10.38;;
32323;SDS011;25666;44.350;9.222;2023-02-19T07:48:07;22.75;;;10.77;;
32323;SDS011;25666;44.350;9.222;2023-02-19T07:50:32;22.45;;;11.40;;
32323;SDS011;25666;44.350;9.222;2023-02-19T07:52:58;19.92;;;9.82;;
32323;SDS011;25666;44.350;9.222;2023-02-19T07:55:23;20.20;;;10.25;;
32323;SDS011;25666;44.350;9.222;2023-02-19T07:57:49;19.27;;;10.55;;
32323;SDS011;25666;44.350;9.222;2023-02-19T08:00:14;25.85;;;11.45;;
32323;SDS011;25666;44.350;9.222;2023-02-19T08:02:40;21.30;;;10.95;;
32323;SDS011;25666;44.350;9.222;2023-02-19T08:05:24;29.20;;;11.73;;
32323;SDS011;25666;44.350;9.222;2023-02-19T08:08:01;22.83;;;11.85;;
32323;SDS011;25666;44.350;9.222;2023-02-19T08:10:26;20.85;;;11.52;;
32323;SDS011;25666;44.350;9.222;2023-02-19T08:13:11;24.92;;;11.65;;
32323;SDS011;25666;44.350;9.222;2023-02-19T08:18:24;21.90;;;11.38;;
32323;SDS011;25666;44.350;9.222;2023-02-19T08:20:51;23.10;;;10.23;;
32323;SDS011;25666;44.350;9.222;2023-02-19T08:23:18;23.13;;;10.82;;
32323;SDS011;25666;44.350;9.222;2023-02-19T08:25:44;24.95;;;11.23;;
32323;SDS011;25666;44.350;9.222;2023-02-19T08:28:10;25.25;;;11.85;;
32323;SDS011;25666;44.350;9.222;2023-02-19T08:30:37;26.42;;;12.93;;
32323;SDS011;25666;44.350;9.222;2023-02-19T08:33:04;23.15;;;12.38;;
32323;SDS011;25666;44.350;9.222;2023-02-19T08:35:30;27.80;;;11.85;;
32323;SDS011;25666;44.350;9.222;2023-02-19T08:37:56;24.77;;;12.80;;
32323;SDS011;25666;44.350;9.222;2023-02-19T08:40:22;25.45;;;12.10;;
32323;SDS011;25666;44.350;9.222;2023-02-19T08:42:49;22.40;;;11.82;;
32323;SDS011;25666;44.350;9.222;2023-02-19T08:45:14;19.65;;;11.75;;
32323;SDS011;25666;44.350;9.222;2023-02-19T08:47:40;29.00;;;12.65;;
32323;SDS011;25666;44.350;9.222;2023-02-19T08:50:06;26.67;;;12.25;;
32323;SDS011;25666;44.350;9.222;2023-02-19T08:52:32;23.15;;;12.18;;
32323;SDS011;25666;44.350;9.222;2023-02-19T08:54:57;28.33;;;12.88;;
32323;SDS011;25666;44.350;9.222;2023-02-19T08:57:23;29.50;;;14.40;;
32323;SDS011;25666;44.350;9.222;2023-02-19T08:59:49;35.60;;;15.00;;
32323;SDS011;25666;44.350;9.222;2023-02-19T09:02:14;32.20;;;14.55;;
32323;SDS011;25666;44.350;9.222;2023-02-19T09:04:40;27.75;;;13.02;;
32323;SDS011;25666;44.350;9.222;2023-02-19T09:07:05;27.55;;;11.93;;
32323;SDS011;25666;44.350;9.222;2023-02-19T09:09:35;27.55;;;13.38;;
32323;SDS011;25666;44.350;9.222;2023-02-19T09:12:03;33.50;;;14.15;;
32323;SDS011;25666;44.350;9.222;2023-02-19T09:14:32;28.35;;;14.48;;
32323;SDS011;25666;44.350;9.222;2023-02-19T09:16:58;26.50;;;14.23;;
32323;SDS011;25666;44.350;9.222;2023-02-19T09:19:25;33.92;;;15.80;;
32323;SDS011;25666;44.350;9.222;2023-02-19T09:21:51;28.40;;;14.68;;
32323;SDS011;25666;44.350;9.222;2023-02-19T09:24:17;33.47;;;15.88;;
32323;SDS011;25666;44.350;9.222;2023-02-19T09:26:42;27.13;;;13.23;;
32323;SDS011;25666;44.350;9.222;2023-02-19T09:29:08;31.23;;;13.43;;
32323;SDS011;25666;44.350;9.222;2023-02-19T09:31:33;30.20;;;13.40;;
32323;SDS011;25666;44.350;9.222;2023-02-19T09:33:59;29.50;;;12.52;;
32323;SDS011;25666;44.350;9.222;2023-02-19T09:36:25;25.05;;;12.30;;
32323;SDS011;25666;44.350;9.222;2023-02-19T09:38:50;22.60;;;10.65;;
32323;SDS011;25666;44.350;9.222;2023-02-19T09:41:18;25.70;;;10.98;;
32323;SDS011;25666;44.350;9.222;2023-02-19T09:43:50;22.40;;;10.70;;
32323;SDS011;25666;44.350;9.222;2023-02-19T09:46:23;19.80;;;10.52;;
32323;SDS011;25666;44.350;9.222;2023-02-19T09:48:52;23.60;;;11.90;;
32323;SDS011;25666;44.350;9.222;2023-02-19T09:51:21;20.42;;;10.65;;
32323;SDS011;25666;44.350;9.222;2023-02-19T09:53:49;20.33;;;9.65;;
32323;SDS011;25666;44.350;9.222;2023-02-19T09:56:16;20.08;;;9.55;;
32323;SDS011;25666;44.350;9.222;2023-02-19T09:58:45;19.77;;;10.73;;
32323;SDS011;25666;44.350;9.222;2023-02-19T10:01:12;23.63;;;11.13;;
32323;SDS011;25666;44.350;9.222;2023-02-19T10:03:38;25.13;;;12.15;;
32323;SDS011;25666;44.350;9.222;2023-02-19T10:06:17;26.25;;;11.52;;
32323;SDS011;25666;44.350;9.222;2023-02-19T10:08:47;24.60;;;12.77;;
32323;SDS011;25666;44.350;9.222;2023-02-19T10:11:15;24.33;;;12.02;;
32323;SDS011;25666;44.350;9.222;2023-02-19T10:13:43;24.02;;;11.70;;
32323;SDS011;25666;44.350;9.222;2023-02-19T10:16:13;21.35;;;10.68;;
32323;SDS011;25666;44.350;9.222;2023-02-19T10:18:42;20.33;;;10.23;;
32323;SDS011;25666;44.350;9.222;2023-02-19T10:21:10;26.88;;;13.10;;
32323;SDS011;25666;44.350;9.222;2023-02-19T10:23:39;24.77;;;12.25;;
32323;SDS011;25666;44.350;9.222;2023-02-19T10:26:06;24.77;;;11.48;;
32323;SDS011;25666;44.350;9.222;2023-02-19T10:28:34;20.98;;;10.50;;
32323;SDS011;25666;44.350;9.222;2023-02-19T10:31:05;26.63;;;11.70;;
32323;SDS011;25666;44.350;9.222;2023-02-19T10:33:50;20.55;;;11.65;;
32323;SDS011;25666;44.350;9.222;2023-02-19T10:36:35;21.38;;;10.38;;
32323;SDS011;25666;44.350;9.222;2023-02-19T10:39:06;18.85;;;9.57;;
32323;SDS011;25666;44.350;9.222;2023-02-19T10:41:51;16.35;;;10.07;;
32323;SDS011;25666;44.350;9.222;2023-02-19T10:44:21;23.02;;;10.95;;
32323;SDS011;25666;44.350;9.222;2023-02-19T10:46:52;17.40;;;10.45;;
32323;SDS011;25666;44.350;9.222;2023-02-19T10:49:32;18.58;;;10.60;;
32323;SDS011;25666;44.350;9.222;2023-02-19T10:52:08;18.13;;;10.10;;
32323;SDS011;25666;44.350;9.222;2023-02-19T10:54:42;20.80;;;9.88;;
32323;SDS011;25666;44.350;9.222;2023-02-19T10:59:50;18.92;;;9.85;;
32323;SDS011;25666;44.350;9.222;2023-02-19T11:02:19;17.60;;;9.75;;
32323;SDS011;25666;44.350;9.222;2023-02-19T11:05:02;17.30;;;9.50;;
32323;SDS011;25666;44.350;9.222;2023-02-19T11:07:47;20.10;;;9.18;;
32323;SDS011;25666;44.350;9.222;2023-02-19T11:10:19;14.45;;;8.20;;
32323;SDS011;25666;44.350;9.222;2023-02-19T11:13:03;15.57;;;8.65;;
32323;SDS011;25666;44.350;9.222;2023-02-19T11:15:31;18.35;;;9.45;;
32323;SDS011;25666;44.350;9.222;2023-02-19T11:20:53;20.02;;;8.43;;
32323;SDS011;25666;44.350;9.222;2023-02-19T11:23:28;15.20;;;8.43;;
32323;SDS011;25666;44.350;9.222;2023-02-19T11:26:00;20.52;;;10.15;;
32323;SDS011;25666;44.350;9.222;2023-02-19T11:33:42;14.88;;;8.25;;
32323;SDS011;25666;44.350;9.222;2023-02-19T11:38:43;15.50;;;8.75;;
32323;SDS011;25666;44.350;9.222;2023-02-19T11:41:12;14.25;;;9.07;;
32323;SDS011;25666;44.350;9.222;2023-02-19T11:44:02;17.13;;;9.93;;
32323;SDS011;25666;44.350;9.222;2023-02-19T12:11:34;21.02;;;8.48;;
32323;SDS011;25666;44.350;9.222;2023-02-19T12:14:38;15.63;;;7.68;;
32323;SDS011;25666;44.350;9.222;2023-02-19T12:25:39;15.15;;;8.15;;
32323;SDS011;25666;44.350;9.222;2023-02-19T12:31:38;11.10;;;7.72;;
32323;SDS011;25666;44.350;9.222;2023-02-19T12:37:03;12.63;;;7.68;;
32323;SDS011;25666;44.350;9.222;2023-02-19T12:45:59;12.55;;;7.50;;
32323;SDS011;25666;44.350;9.222;2023-02-19T12:51:04;11.02;;;6.80;;
32323;SDS011;25666;44.350;9.222;2023-02-19T12:53:47;17.70;;;6.35;;
32323;SDS011;25666;44.350;9.222;2023-02-19T12:56:24;10.77;;;6.45;;
32323;SDS011;25666;44.350;9.222;2023-02-19T12:58:57;13.45;;;6.72;;
32323;SDS011;25666;44.350;9.222;2023-02-19T13:01:31;16.30;;;7.55;;
32323;SDS011;25666;44.350;9.222;2023-02-19T13:07:08;15.68;;;8.25;;
32323;SDS011;25666;44.350;9.222;2023-02-19T13:09:38;16.42;;;7.63;;
32323;SDS011;25666;44.350;9.222;2023-02-19T13:12:23;15.25;;;7.78;;
32323;SDS011;25666;44.350;9.222;2023-02-19T13:14:55;10.73;;;6.88;;
32323;SDS011;25666;44.350;9.222;2023-02-19T13:17:33;12.33;;;7.47;;
32323;SDS011;25666;44.350;9.222;2023-02-19T13:36:39;19.17;;;7.80;;
32323;SDS011;25666;44.350;9.222;2023-02-19T13:39:05;21.98;;;7.75;;
32323;SDS011;25666;44.350;9.222;2023-02-19T13:41:38;16.83;;;7.22;;
32323;SDS011;25666;44.350;9.222;2023-02-19T13:44:12;22.60;;;7.60;;
32323;SDS011;25666;44.350;9.222;2023-02-19T13:46:43;14.93;;;7.68;;
32323;SDS011;25666;44.350;9.222;2023-02-19T13:51:57;12.43;;;6.20;;
32323;SDS011;25666;44.350;9.222;2023-02-19T13:54:43;13.75;;;7.28;;
32323;SDS011;25666;44.350;9.222;2023-02-19T13:57:22;17.75;;;7.30;;
32323;SDS011;25666;44.350;9.222;2023-02-19T13:59:55;15.93;;;7.90;;
32323;SDS011;25666;44.350;9.222;2023-02-19T14:04:48;19.95;;;6.93;;
32323;SDS011;25666;44.350;9.222;2023-02-19T14:09:50;18.98;;;7.53;;
32323;SDS011;25666;44.350;9.222;2023-02-19T14:14:45;21.20;;;8.20;;
32323;SDS011;25666;44.350;9.222;2023-02-19T14:23:33;16.33;;;6.75;;
32323;SDS011;25666;44.350;9.222;2023-02-19T14:25:56;16.08;;;6.70;;
32323;SDS011;25666;44.350;9.222;2023-02-19T14:28:25;33.92;;;8.27;;
32323;SDS011;25666;44.350;9.222;2023-02-19T14:30:55;24.17;;;7.40;;
32323;SDS011;25666;44.350;9.222;2023-02-19T14:33:22;18.20;;;7.35;;
32323;SDS011;25666;44.350;9.222;2023-02-19T14:36:09;12.55;;;5.70;;
32323;SDS011;25666;44.350;9.222;2023-02-19T14:38:58;19.48;;;6.78;;
32323;SDS011;25666;44.350;9.222;2023-02-19T14:41:28;16.67;;;7.32;;
32323;SDS011;25666;44.350;9.222;2023-02-19T14:43:57;22.23;;;6.68;;
32323;SDS011;25666;44.350;9.222;2023-02-19T14:48:57;10.80;;;6.22;;
32323;SDS011;25666;44.350;9.222;2023-02-19T14:51:34;20.30;;;7.05;;
32323;SDS011;25666;44.350;9.222;2023-02-19T14:54:14;13.10;;;6.72;;
32323;SDS011;25666;44.350;9.222;2023-02-19T14:56:50;20.73;;;7.45;;
32323;SDS011;25666;44.350;9.222;2023-02-19T14:59:21;12.88;;;6.07;;
32323;SDS011;25666;44.350;9.222;2023-02-19T15:04:22;20.25;;;7.25;;
32323;SDS011;25666;44.350;9.222;2023-02-19T15:06:49;16.00;;;6.30;;
32323;SDS011;25666;44.350;9.222;2023-02-19T15:09:17;10.27;;;6.07;;
32323;SDS011;25666;44.350;9.222;2023-02-19T15:11:44;15.63;;;7.63;;
32323;SDS011;25666;44.350;9.222;2023-02-19T15:14:14;25.38;;;6.43;;
32323;SDS011;25666;44.350;9.222;2023-02-19T15:16:45;18.75;;;7.07;;
32323;SDS011;25666;44.350;9.222;2023-02-19T15:19:11;17.80;;;6.82;;
32323;SDS011;25666;44.350;9.222;2023-02-19T15:21:44;19.73;;;7.15;;
32323;SDS011;25666;44.350;9.222;2023-02-19T15:24:13;20.65;;;6.82;;
32323;SDS011;25666;44.350;9.222;2023-02-19T15:26:41;19.58;;;5.78;;
32323;SDS011;25666;44.350;9.222;2023-02-19T15:29:12;13.63;;;6.50;;
32323;SDS011;25666;44.350;9.222;2023-02-19T15:31:46;17.73;;;6.72;;
32323;SDS011;25666;44.350;9.222;2023-02-19T15:34:16;22.23;;;6.35;;
32323;SDS011;25666;44.350;9.222;2023-02-19T15:36:47;13.88;;;6.35;;
32323;SDS011;25666;44.350;9.222;2023-02-19T15:39:19;21.65;;;7.22;;
32323;SDS011;25666;44.350;9.222;2023-02-19T15:41:50;21.00;;;9.13;;
32323;SDS011;25666;44.350;9.222;2023-02-19T15:47:19;23.63;;;8.55;;
32323;SDS011;25666;44.350;9.222;2023-02-19T15:50:13;15.65;;;7.40;;
32323;SDS011;25666;44.350;9.222;2023-02-19T15:55:33;12.40;;;6.20;;
32323;SDS011;25666;44.350;9.222;2023-02-19T15:58:22;14.68;;;7.10;;
32323;SDS011;25666;44.350;9.222;2023-02-19T16:00:54;16.15;;;6.60;;
32323;SDS011;25666;44.350;9.222;2023-02-19T16:03:24;16.75;;;6.30;;
32323;SDS011;25666;44.350;9.222;2023-02-19T16:06:01;18.17;;;8.30;;
32323;SDS011;25666;44.350;9.222;2023-02-19T16:08:34;11.98;;;6.10;;
32323;SDS011;25666;44.350;9.222;2023-02-19T16:11:02;24.20;;;6.47;;
32323;SDS011;25666;44.350;9.222;2023-02-19T16:13:31;13.85;;;6.43;;
32323;SDS011;25666;44.350;9.222;2023-02-19T16:18:27;14.77;;;6.70;;
32323;SDS011;25666;44.350;9.222;2023-02-19T16:20:54;12.65;;;6.20;;
32323;SDS011;25666;44.350;9.222;2023-02-19T16:23:20;20.35;;;6.53;;
32323;SDS011;25666;44.350;9.222;2023-02-19T16:25:49;18.92;;;6.47;;
32323;SDS011;25666;44.350;9.222;2023-02-19T16:28:23;21.58;;;6.72;;
32323;SDS011;25666;44.350;9.222;2023-02-19T16:30:57;25.15;;;7.35;;
32323;SDS011;25666;44.350;9.222;2023-02-19T16:33:41;18.65;;;7.65;;
32323;SDS011;25666;44.350;9.222;2023-02-19T16:36:14;14.95;;;6.90;;
32323;SDS011;25666;44.350;9.222;2023-02-19T16:41:33;14.73;;;6.20;;
32323;SDS011;25666;44.350;9.222;2023-02-19T16:43:58;23.27;;;8.00;;
32323;SDS011;25666;44.350;9.222;2023-02-19T16:46:30;14.07;;;7.00;;
32323;SDS011;25666;44.350;9.222;2023-02-19T16:48:57;15.57;;;7.47;;
32323;SDS011;25666;44.350;9.222;2023-02-19T16:51:24;20.90;;;8.32;;
32323;SDS011;25666;44.350;9.222;2023-02-19T16:53:50;23.70;;;7.75;;
32323;SDS011;25666;44.350;9.222;2023-02-19T16:56:19;14.45;;;7.40;;
32323;SDS011;25666;44.350;9.222;2023-02-19T16:58:55;20.55;;;8.00;;
32323;SDS011;25666;44.350;9.222;2023-02-19T17:01:21;26.38;;;7.28;;
32323;SDS011;25666;44.350;9.222;2023-02-19T17:03:46;21.25;;;8.50;;
32323;SDS011;25666;44.350;9.222;2023-02-19T17:06:12;20.75;;;8.30;;
32323;SDS011;25666;44.350;9.222;2023-02-19T17:08:42;21.70;;;7.75;;
32323;SDS011;25666;44.350;9.222;2023-02-19T17:11:12;16.08;;;7.25;;
32323;SDS011;25666;44.350;9.222;2023-02-19T17:13:39;12.88;;;7.43;;
32323;SDS011;25666;44.350;9.222;2023-02-19T17:16:06;22.42;;;8.38;;